createdAt,value
2022-11-05T00:00:45.040Z,5.07
2022-11-05T00:03:32.688Z,5.45
2022-11-05T00:06:20.311Z,4.20
2022-11-05T00:09:07.799Z,4.82
2022-11-05T00:11:54.444Z,4.72
2022-11-05T00:14:41.701Z,3.92
2022-11-05T00:17:10.509Z,3.97
2022-11-05T00:19:39.953Z,4.47
2022-11-05T00:22:27.789Z,4.47
2022-11-05T00:25:14.766Z,3.97
2022-11-05T00:27:47.121Z,4.53
2022-11-05T00:30:22.637Z,5.18
2022-11-05T00:32:52.985Z,5.07
2022-11-05T00:35:23.065Z,5.35
2022-11-05T00:37:53.952Z,4.90
2022-11-05T00:40:22.577Z,5.32
2022-11-05T00:43:10.569Z,5.62
2022-11-05T00:45:40.027Z,4.70
2022-11-05T00:48:26.950Z,5.47
2022-11-05T00:50:56.525Z,4.68
2022-11-05T00:53:24.701Z,4.55
2022-11-05T00:55:53.180Z,4.57
2022-11-05T00:58:24.041Z,4.82
2022-11-05T01:00:56.462Z,3.70
2022-11-05T01:03:33.286Z,4.57
2022-11-05T01:06:13.326Z,4.50
2022-11-05T01:08:44.165Z,3.97
2022-11-05T01:11:39.523Z,4.00
2022-11-05T01:14:12.717Z,3.90
2022-11-05T01:16:41.051Z,4.05
2022-11-05T01:19:11.016Z,5.00
2022-11-05T01:21:38.814Z,4.65
2022-11-05T01:24:08.460Z,5.43
2022-11-05T01:26:36.379Z,3.83
2022-11-05T01:29:03.786Z,5.10
2022-11-05T01:31:33.238Z,3.92
2022-11-05T01:34:03.538Z,5.05
2022-11-05T01:36:34.000Z,4.68
2022-11-05T01:39:04.757Z,4.62
2022-11-05T01:41:35.014Z,5.93
2022-11-05T01:44:03.791Z,6.30
2022-11-05T01:46:43.699Z,5.60
2022-11-05T01:49:22.587Z,5.28
2022-11-05T01:51:52.053Z,6.25
2022-11-05T01:54:23.205Z,5.90
2022-11-05T01:57:04.434Z,6.35
2022-11-05T01:59:37.391Z,6.53
2022-11-05T02:02:07.956Z,6.57
2022-11-05T02:04:46.084Z,5.53
2022-11-05T02:07:15.786Z,5.97
2022-11-05T02:10:01.961Z,7.05
2022-11-05T02:12:32.609Z,6.18
2022-11-05T02:15:02.904Z,7.57
2022-11-05T02:18:00.612Z,7.82
2022-11-05T02:20:36.071Z,8.13
2022-11-05T02:23:18.732Z,8.30
2022-11-05T02:26:14.374Z,7.78
2022-11-05T02:29:28.606Z,6.53
2022-11-05T02:32:25.096Z,6.70
2022-11-05T02:35:00.001Z,7.43
2022-11-05T02:40:26.367Z,7.55
2022-11-05T02:43:05.752Z,7.35
2022-11-05T02:46:09.207Z,6.95
2022-11-05T02:48:56.466Z,8.40
2022-11-05T02:51:35.605Z,8.80
2022-11-05T02:54:18.583Z,7.65
2022-11-05T02:56:48.658Z,8.95
2022-11-05T02:59:18.714Z,6.93
2022-11-05T03:01:48.502Z,8.05
2022-11-05T03:04:22.969Z,8.75
2022-11-05T03:07:17.144Z,7.65
2022-11-05T03:10:02.259Z,7.95
2022-11-05T03:12:50.795Z,7.82
2022-11-05T03:15:38.252Z,7.72
2022-11-05T03:18:30.831Z,8.23
2022-11-05T03:21:02.910Z,7.93
2022-11-05T03:23:45.727Z,7.75
2022-11-05T03:26:31.095Z,7.80
2022-11-05T03:29:13.443Z,7.43
2022-11-05T03:31:43.422Z,7.20
2022-11-05T03:34:13.650Z,8.35
2022-11-05T03:36:46.247Z,8.02
2022-11-05T03:39:20.194Z,7.05
2022-11-05T03:41:53.325Z,7.03
2022-11-05T03:44:30.598Z,6.60
2022-11-05T03:47:07.298Z,6.07
2022-11-05T03:49:49.875Z,6.28
2022-11-05T03:52:21.490Z,7.70
2022-11-05T03:54:51.925Z,6.03
2022-11-05T03:57:25.898Z,6.18
2022-11-05T03:59:55.153Z,7.03
2022-11-05T04:02:26.613Z,6.30
2022-11-05T04:04:56.135Z,6.60
2022-11-05T04:07:43.853Z,6.20
2022-11-05T04:10:32.563Z,6.82
2022-11-05T04:13:20.353Z,6.20
2022-11-05T04:16:09.806Z,6.45
2022-11-05T04:18:38.783Z,6.82
2022-11-05T04:21:25.870Z,6.37
2022-11-05T04:24:09.711Z,6.95
2022-11-05T04:26:40.053Z,6.32
2022-11-05T04:29:27.070Z,6.65
2022-11-05T04:31:56.616Z,6.32
2022-11-05T04:34:26.359Z,6.22
2022-11-05T04:36:56.336Z,5.70
2022-11-05T04:39:25.349Z,6.12
2022-11-05T04:41:54.901Z,6.93
2022-11-05T04:44:23.289Z,6.15
2022-11-05T04:46:53.788Z,5.32
2022-11-05T04:49:24.224Z,5.97
2022-11-05T04:51:52.702Z,5.15
2022-11-05T04:54:20.984Z,6.10
2022-11-05T04:56:48.884Z,5.90
2022-11-05T04:59:22.760Z,6.15
2022-11-05T05:01:53.722Z,5.47
2022-11-05T05:04:23.609Z,5.87
2022-11-05T05:06:51.050Z,5.15
2022-11-05T05:09:20.255Z,4.68
2022-11-05T05:11:49.637Z,4.97
2022-11-05T05:14:17.906Z,4.80
2022-11-05T05:16:45.911Z,5.35
2022-11-05T05:19:16.541Z,5.15
2022-11-05T05:21:46.359Z,4.55
2022-11-05T05:24:19.259Z,4.82
2022-11-05T05:26:50.281Z,4.12
2022-11-05T05:29:19.518Z,4.03
2022-11-05T05:31:47.371Z,4.28
2022-11-05T05:34:14.909Z,3.50
2022-11-05T05:36:43.398Z,3.40
2022-11-05T05:39:13.168Z,4.03
2022-11-05T05:41:41.701Z,3.67
2022-11-05T05:44:10.329Z,3.00
2022-11-05T05:46:38.933Z,3.80
2022-11-05T05:49:12.537Z,3.47
2022-11-05T05:51:42.322Z,3.80
2022-11-05T05:54:12.538Z,3.70
2022-11-05T05:56:46.323Z,3.72
2022-11-05T05:59:14.614Z,3.70
2022-11-05T06:01:43.855Z,3.25
2022-11-05T06:04:12.933Z,3.22
2022-11-05T06:06:42.605Z,3.53
2022-11-05T06:09:12.345Z,3.50
2022-11-05T06:11:41.687Z,3.72
2022-11-05T06:14:12.251Z,2.85
2022-11-05T06:16:42.395Z,3.35
2022-11-05T06:19:11.765Z,3.50
2022-11-05T06:21:41.255Z,3.58
2022-11-05T06:24:11.959Z,3.15
2022-11-05T06:26:44.464Z,3.62
2022-11-05T06:29:12.572Z,3.70
2022-11-05T06:31:43.286Z,3.72
2022-11-05T06:34:11.606Z,3.42
2022-11-05T06:36:40.341Z,3.45
2022-11-05T06:39:13.284Z,3.45
2022-11-05T06:42:16.455Z,3.62
2022-11-05T06:44:38.564Z,3.55
2022-11-05T06:47:09.871Z,3.58
2022-11-05T06:49:41.030Z,3.30
2022-11-05T06:52:10.715Z,3.67
2022-11-05T06:54:39.817Z,3.65
2022-11-05T06:57:10.044Z,3.53
2022-11-05T06:59:42.272Z,3.40
2022-11-05T07:02:14.433Z,2.33
2022-11-05T07:04:42.646Z,2.78
2022-11-05T07:07:10.286Z,2.60
2022-11-05T07:09:43.842Z,3.10
2022-11-05T07:12:11.903Z,3.05
2022-11-05T07:14:40.730Z,2.70
2022-11-05T07:17:09.128Z,2.30
2022-11-05T07:19:38.461Z,3.17
2022-11-05T07:22:08.250Z,3.00
2022-11-05T07:24:42.129Z,2.70
2022-11-05T07:27:12.596Z,2.72
2022-11-05T07:29:41.015Z,2.53
2022-11-05T07:32:09.301Z,2.53
2022-11-05T07:34:37.930Z,1.98
2022-11-05T07:37:09.159Z,2.42
2022-11-05T07:39:38.172Z,2.20
2022-11-05T07:42:06.727Z,1.80
2022-11-05T07:44:34.661Z,2.35
2022-11-05T07:47:05.014Z,2.30
2022-11-05T07:49:37.503Z,2.20
2022-11-05T07:52:07.510Z,2.77
2022-11-05T07:54:36.338Z,2.10
2022-11-05T07:57:05.214Z,2.30
2022-11-05T07:59:34.139Z,2.90
2022-11-05T08:02:03.805Z,2.72
2022-11-05T08:04:44.424Z,2.78
2022-11-05T08:07:14.184Z,2.00
2022-11-05T08:09:47.205Z,2.65
2022-11-05T08:12:16.326Z,2.47
2022-11-05T08:14:47.171Z,2.42
2022-11-05T08:17:18.555Z,2.40
2022-11-05T08:19:49.785Z,2.00
2022-11-05T08:22:18.591Z,1.80
2022-11-05T08:24:48.348Z,2.45
2022-11-05T08:27:18.376Z,2.90
2022-11-05T08:29:47.614Z,2.40
2022-11-05T08:32:16.837Z,3.20
2022-11-05T08:34:46.597Z,2.87
2022-11-05T08:37:15.654Z,2.80
2022-11-05T08:39:44.636Z,2.85
2022-11-05T08:42:15.115Z,2.12
2022-11-05T08:44:44.072Z,2.70
2022-11-05T08:47:18.612Z,3.20
2022-11-05T08:49:49.022Z,2.65
2022-11-05T08:52:18.958Z,3.00
2022-11-05T08:54:48.207Z,3.37
2022-11-05T08:57:17.447Z,2.95
2022-11-05T08:59:45.523Z,2.72
2022-11-05T09:02:15.291Z,2.75
2022-11-05T09:04:45.334Z,2.92
2022-11-05T09:07:14.874Z,3.17
2022-11-05T09:09:43.364Z,2.92
2022-11-05T09:12:12.981Z,3.20
2022-11-05T09:14:43.078Z,2.80
2022-11-05T09:17:21.770Z,3.10
2022-11-05T09:19:50.329Z,1.92
2022-11-05T09:22:19.173Z,2.78
2022-11-05T09:25:10.620Z,3.37
2022-11-05T09:27:42.128Z,2.90
2022-11-05T09:30:21.773Z,3.03
2022-11-05T09:32:51.900Z,3.05
2022-11-05T09:35:20.834Z,3.22
2022-11-05T09:37:50.578Z,3.75
2022-11-05T09:40:19.976Z,3.40
2022-11-05T09:42:53.304Z,3.87
2022-11-05T09:45:26.096Z,3.83
2022-11-05T09:48:02.481Z,4.12
2022-11-05T09:50:38.357Z,3.78
2022-11-05T09:53:08.946Z,3.67
2022-11-05T09:55:42.107Z,2.47
2022-11-05T09:58:32.850Z,4.28
2022-11-05T10:01:04.474Z,3.55
2022-11-05T10:03:34.593Z,3.92
2022-11-05T10:06:09.089Z,3.90
2022-11-05T10:08:44.881Z,3.67
2022-11-05T10:11:39.139Z,3.83
2022-11-05T10:14:23.833Z,4.03
2022-11-05T10:17:11.973Z,4.40
2022-11-05T10:19:51.259Z,3.80
2022-11-05T10:22:21.627Z,4.30
2022-11-05T10:24:55.382Z,2.65
2022-11-05T10:27:31.508Z,3.30
2022-11-05T10:30:02.495Z,4.20
2022-11-05T10:32:37.195Z,3.42
2022-11-05T10:35:12.881Z,3.45
2022-11-05T10:37:42.639Z,3.53
2022-11-05T10:40:25.170Z,4.03
2022-11-05T10:43:14.595Z,3.60
2022-11-05T10:46:08.438Z,4.18
2022-11-05T10:48:53.109Z,4.00
2022-11-05T10:51:22.448Z,4.07
2022-11-05T10:54:00.500Z,3.87
2022-11-05T10:56:38.168Z,4.25
2022-11-05T10:59:19.829Z,3.45
2022-11-05T11:01:47.862Z,3.80
2022-11-05T11:04:27.951Z,4.15
2022-11-05T11:07:00.925Z,3.45
2022-11-05T11:09:35.921Z,4.28
2022-11-05T11:12:21.722Z,3.60
2022-11-05T11:15:05.737Z,3.65
2022-11-05T11:17:35.954Z,3.92
2022-11-05T11:20:20.531Z,4.15
2022-11-05T11:23:03.491Z,3.67
2022-11-05T11:25:51.525Z,3.80
2022-11-05T11:28:28.128Z,3.65
2022-11-05T11:31:04.802Z,4.32
2022-11-05T11:33:35.703Z,3.05
2022-11-05T11:36:04.244Z,4.30
2022-11-05T11:38:34.717Z,3.25
2022-11-05T11:41:15.676Z,3.80
2022-11-05T11:43:45.564Z,3.75
2022-11-05T11:46:19.694Z,3.85
2022-11-05T11:48:50.572Z,3.47
2022-11-05T11:51:41.400Z,2.75
2022-11-05T11:54:29.026Z,3.70
2022-11-05T11:56:58.790Z,3.35
2022-11-05T12:00:01.838Z,3.85
2022-11-05T12:02:41.436Z,3.45
2022-11-05T12:05:20.327Z,3.37
2022-11-05T12:07:58.761Z,3.67
2022-11-05T12:11:03.607Z,3.67
2022-11-05T12:13:42.490Z,3.58
2022-11-05T12:16:42.863Z,3.70
2022-11-05T12:19:39.461Z,3.80
2022-11-05T12:22:30.903Z,3.58
2022-11-05T12:25:23.597Z,3.22
2022-11-05T12:27:59.499Z,3.50
2022-11-05T12:30:52.599Z,2.92
2022-11-05T12:33:43.203Z,3.25
2022-11-05T12:36:34.484Z,3.28
2022-11-05T12:39:06.469Z,3.20
2022-11-05T12:41:49.924Z,2.90
2022-11-05T12:44:42.861Z,2.50
2022-11-05T12:47:49.038Z,3.33
2022-11-05T12:50:28.803Z,3.10
2022-11-05T12:53:01.596Z,2.67
2022-11-05T12:55:48.113Z,3.42
2022-11-05T12:58:22.078Z,3.10
2022-11-05T13:00:57.670Z,2.58
2022-11-05T13:03:36.230Z,3.03
2022-11-05T13:06:16.231Z,3.00
2022-11-05T13:09:04.661Z,2.60
2022-11-05T13:12:03.288Z,2.78
2022-11-05T13:14:41.065Z,2.35
2022-11-05T13:17:20.834Z,2.25
2022-11-05T13:20:17.620Z,2.17
2022-11-05T13:23:04.047Z,2.37
2022-11-05T13:25:36.737Z,2.65
2022-11-05T13:28:25.175Z,2.65
2022-11-05T13:31:02.006Z,1.85
2022-11-05T13:33:35.958Z,2.10
2022-11-05T13:36:39.180Z,1.58
2022-11-05T13:39:30.829Z,1.90
2022-11-05T13:42:21.553Z,1.92
2022-11-05T13:45:30.861Z,1.77
2022-11-05T13:48:48.469Z,2.00
2022-11-05T13:51:48.182Z,1.80
2022-11-05T13:54:23.890Z,1.80
2022-11-05T13:57:22.562Z,2.03
2022-11-05T14:00:17.560Z,1.87
2022-11-05T14:02:52.064Z,1.85
2022-11-05T14:05:29.283Z,2.15
2022-11-05T14:08:01.688Z,1.67
2022-11-05T14:10:39.302Z,1.67
2022-11-05T14:13:27.766Z,2.20
2022-11-05T14:16:09.913Z,2.05
2022-11-05T14:18:42.426Z,2.00
2022-11-05T14:21:47.766Z,1.92
2022-11-05T14:24:22.699Z,2.10
2022-11-05T14:27:03.357Z,2.10
2022-11-05T14:29:42.754Z,2.47
2022-11-05T14:32:20.221Z,2.53
2022-11-05T14:35:16.145Z,2.30
2022-11-05T14:38:28.699Z,2.40
2022-11-05T14:41:01.165Z,3.70
2022-11-05T14:43:37.521Z,2.90
2022-11-05T14:46:08.963Z,2.80
2022-11-05T14:48:43.442Z,3.10
2022-11-05T14:51:34.095Z,2.20
2022-11-05T14:54:26.198Z,3.10
2022-11-05T14:57:00.109Z,2.95
2022-11-05T14:59:32.619Z,2.28
2022-11-05T15:02:07.531Z,1.85
2022-11-05T15:04:45.827Z,2.65
2022-11-05T15:07:32.288Z,2.05
2022-11-05T15:10:21.224Z,2.53
2022-11-05T15:12:58.305Z,2.03
2022-11-05T15:15:32.793Z,2.30
2022-11-05T15:18:32.607Z,2.53
2022-11-05T15:21:02.664Z,2.12
2022-11-05T15:23:46.113Z,2.60
2022-11-05T15:26:20.011Z,2.15
2022-11-05T15:28:51.884Z,1.48
2022-11-05T15:31:41.432Z,2.58
2022-11-05T15:34:35.561Z,2.10
2022-11-05T15:37:10.971Z,2.30
2022-11-05T15:39:41.105Z,2.37
2022-11-05T15:42:18.451Z,2.00
2022-11-05T15:44:55.482Z,2.47
2022-11-05T15:47:36.612Z,2.40
2022-11-05T15:50:17.750Z,2.47
2022-11-05T15:52:51.017Z,2.22
2022-11-05T15:55:25.224Z,2.33
2022-11-05T15:58:08.585Z,2.20
2022-11-05T16:00:48.787Z,2.30
2022-11-05T16:03:34.512Z,2.37
2022-11-05T16:06:03.777Z,2.75
2022-11-05T16:08:32.706Z,2.83
2022-11-05T16:11:03.640Z,2.12
2022-11-05T16:13:38.565Z,2.50
2022-11-05T16:16:15.155Z,2.40
2022-11-05T16:18:45.840Z,2.53
2022-11-05T16:21:22.944Z,2.33
2022-11-05T16:23:52.926Z,2.30
2022-11-05T16:29:40.816Z,2.22
2022-11-05T16:32:30.999Z,2.17
2022-11-05T16:35:04.009Z,2.30
2022-11-05T16:37:46.452Z,1.58
2022-11-05T16:40:24.145Z,2.28
2022-11-05T16:42:54.652Z,2.20
2022-11-05T16:45:27.103Z,2.60
2022-11-05T16:47:55.609Z,2.83
2022-11-05T16:50:29.461Z,2.50
2022-11-05T16:52:59.524Z,2.35
2022-11-05T16:55:34.070Z,2.90
2022-11-05T16:58:02.894Z,2.58
2022-11-05T17:00:32.089Z,2.53
2022-11-05T17:03:02.522Z,3.00
2022-11-05T17:05:33.136Z,2.92
2022-11-05T17:08:04.027Z,2.30
2022-11-05T17:10:34.529Z,2.58
2022-11-05T17:13:05.708Z,3.12
2022-11-05T17:15:38.691Z,3.05
2022-11-05T17:18:11.630Z,3.50
2022-11-05T17:20:55.794Z,3.33
2022-11-05T17:23:28.109Z,3.10
2022-11-05T17:26:05.522Z,2.75
2022-11-05T17:28:39.802Z,3.15
2022-11-05T17:31:14.364Z,3.12
2022-11-05T17:33:44.998Z,3.28
2022-11-05T17:36:17.303Z,2.70
2022-11-05T17:38:47.403Z,3.08
2022-11-05T17:41:31.782Z,3.08
2022-11-05T17:44:15.151Z,2.90
2022-11-05T17:46:46.485Z,3.37
2022-11-05T17:49:17.124Z,3.20
2022-11-05T17:51:45.817Z,3.20
2022-11-05T17:54:16.244Z,3.37
2022-11-05T17:56:46.411Z,4.25
2022-11-05T17:59:16.100Z,6.43
2022-11-05T18:01:46.742Z,12.85
2022-11-05T18:04:16.974Z,11.57
2022-11-05T18:06:45.040Z,7.40
2022-11-05T18:09:14.716Z,7.20
2022-11-05T18:11:45.898Z,5.03
2022-11-05T18:14:16.757Z,5.30
2022-11-05T18:16:51.949Z,4.47
2022-11-05T18:19:21.822Z,4.60
2022-11-05T18:21:51.064Z,4.82
2022-11-05T18:24:20.456Z,5.00
2022-11-05T18:26:51.232Z,5.00
2022-11-05T18:29:22.407Z,3.92
2022-11-05T18:31:52.876Z,3.30
2022-11-05T18:34:23.735Z,3.97
2022-11-05T18:36:56.169Z,4.37
2022-11-05T18:39:28.001Z,3.37
2022-11-05T18:41:55.863Z,4.05
2022-11-05T18:44:27.433Z,5.10
2022-11-05T18:46:58.972Z,4.20
2022-11-05T18:49:30.159Z,6.50
2022-11-05T18:52:00.848Z,8.68
2022-11-05T18:54:31.046Z,7.62
2022-11-05T18:57:01.390Z,7.20
2022-11-05T18:59:38.273Z,5.87
2022-11-05T19:02:09.633Z,6.55
2022-11-05T19:04:39.477Z,5.32
2022-11-05T19:07:10.013Z,4.93
2022-11-05T19:09:40.988Z,4.43
2022-11-05T19:12:10.800Z,2.95
2022-11-05T19:14:40.534Z,3.05
2022-11-05T19:17:12.725Z,2.50
2022-11-05T19:19:44.612Z,2.67
2022-11-05T19:22:13.660Z,2.90
2022-11-05T19:24:43.248Z,3.20
2022-11-05T19:27:13.817Z,3.15
2022-11-05T19:29:43.652Z,2.67
2022-11-05T19:32:14.291Z,2.75
2022-11-05T19:34:45.295Z,3.25
2022-11-05T19:37:14.540Z,3.75
2022-11-05T19:39:44.793Z,3.37
2022-11-05T19:42:14.684Z,3.28
2022-11-05T19:44:44.331Z,3.40
2022-11-05T19:47:14.396Z,3.30
2022-11-05T19:49:45.169Z,3.50
2022-11-05T19:52:13.651Z,3.95
2022-11-05T19:54:47.305Z,3.85
2022-11-05T19:57:17.570Z,4.00
2022-11-05T19:59:48.702Z,4.20
2022-11-05T20:02:19.523Z,3.85
2022-11-05T20:04:52.252Z,4.03
2022-11-05T20:07:22.972Z,3.83
2022-11-05T20:10:03.417Z,3.90
2022-11-05T20:12:37.141Z,4.15
2022-11-05T20:17:39.727Z,4.00
2022-11-05T20:20:13.895Z,3.53
2022-11-05T20:22:49.115Z,3.50
2022-11-05T20:25:18.133Z,4.12
2022-11-05T20:27:48.784Z,3.75
2022-11-05T20:30:18.278Z,3.30
2022-11-05T20:32:48.006Z,2.83
2022-11-05T20:35:16.715Z,3.17
2022-11-05T20:37:48.537Z,3.15
2022-11-05T20:40:21.131Z,2.90
2022-11-05T20:42:50.203Z,3.08
2022-11-05T20:45:22.117Z,2.95
2022-11-05T20:47:56.453Z,3.12
2022-11-05T20:50:26.509Z,3.15
2022-11-05T20:52:55.965Z,3.05
2022-11-05T20:55:27.858Z,3.53
2022-11-05T20:57:57.962Z,3.40
2022-11-05T21:00:29.752Z,3.53
2022-11-05T21:03:00.829Z,3.00
2022-11-05T21:05:35.631Z,3.37
2022-11-05T21:08:05.640Z,3.12
2022-11-05T21:10:36.474Z,2.97
2022-11-05T21:13:10.725Z,3.28
2022-11-05T21:15:41.026Z,3.25
2022-11-05T21:18:11.111Z,3.15
2022-11-05T21:20:40.981Z,3.58
2022-11-05T21:23:12.026Z,3.60
2022-11-05T21:25:42.491Z,3.72
2022-11-05T21:28:15.775Z,3.47
2022-11-05T21:30:47.745Z,4.10
2022-11-05T21:33:19.612Z,3.70
2022-11-05T21:35:50.238Z,4.10
2022-11-05T21:38:20.802Z,4.12
2022-11-05T21:40:50.670Z,3.87
2022-11-05T21:43:26.065Z,4.68
2022-11-05T21:45:55.515Z,4.50
2022-11-05T21:48:24.084Z,4.30
2022-11-05T21:51:12.034Z,3.97
2022-11-05T21:54:00.916Z,4.00
2022-11-05T21:56:50.368Z,3.60
2022-11-05T21:59:41.321Z,3.97
2022-11-05T22:02:13.213Z,3.33
2022-11-05T22:04:46.862Z,4.00
2022-11-05T22:07:19.190Z,3.30
2022-11-05T22:09:49.050Z,3.00
2022-11-05T22:12:19.491Z,3.03
2022-11-05T22:14:49.036Z,2.67
2022-11-05T22:17:20.221Z,3.15
2022-11-05T22:19:49.542Z,2.97
2022-11-05T22:22:17.572Z,3.53
2022-11-05T22:24:46.272Z,3.33
2022-11-05T22:27:18.219Z,3.70
2022-11-05T22:29:47.336Z,2.92
2022-11-05T22:32:18.508Z,3.37
2022-11-05T22:34:49.555Z,3.83
2022-11-05T22:37:18.498Z,4.30
2022-11-05T22:39:48.905Z,4.35
2022-11-05T22:42:17.810Z,4.50
2022-11-05T22:44:48.799Z,4.85
2022-11-05T22:47:18.655Z,5.78
2022-11-05T22:49:50.482Z,5.80
2022-11-05T22:52:20.602Z,6.60
2022-11-05T22:54:50.569Z,7.28
2022-11-05T22:57:19.625Z,7.60
2022-11-05T22:59:47.901Z,5.80
2022-11-05T23:02:15.708Z,6.97
2022-11-05T23:04:45.110Z,5.85
2022-11-05T23:07:33.056Z,6.30
2022-11-05T23:10:20.778Z,5.53
2022-11-05T23:12:54.029Z,6.43
2022-11-05T23:15:42.424Z,6.22
2022-11-05T23:18:29.398Z,5.40
2022-11-05T23:21:22.715Z,6.30
2022-11-05T23:24:06.750Z,6.22
2022-11-05T23:26:50.484Z,6.45
2022-11-05T23:29:23.585Z,6.30
2022-11-05T23:32:12.979Z,5.95
2022-11-05T23:34:42.189Z,6.55
2022-11-05T23:37:31.783Z,6.12
2022-11-05T23:40:00.214Z,6.53
2022-11-05T23:42:49.705Z,6.28
2022-11-05T23:45:38.166Z,5.93
2022-11-05T23:48:19.678Z,6.15
2022-11-05T23:50:56.523Z,6.50
2022-11-05T23:53:27.602Z,5.93
2022-11-05T23:56:00.723Z,5.53
2022-11-05T23:58:29.806Z,7.32
